Main page
METAR-TAF:

METAR-TAF

Airports :

Ljubljana, Slovenia

Ljubljana Jože Pučnik Airport

latitude: 46-13N, longitude: 014-29E, elevation: 385 m

Current weather observation

The report was made 19 minutes ago, at 02:30 UTC
Wind 1 kt from variable directions
Temperature 11°C
Humidity 87%
Pressure 1023 hPa
Visibility 10 km or more
Few clouds at a height of 6000 ft

METAR: LJLJ 280230Z VRB01KT 9999 FEW060 11/09 Q1023 NOSIG

Time: 04:49 (02:49 UTC)

Forecast

The report was made 49 minutes ago, at 02:00 UTC
Forecast valid from 28 at 03 UTC to 29 at 03 UTC
Wind 3 kt from the West
Visibility 10 km or more
Few clouds at a height of 6000 ft
Becoming
from 28 at 08 UTC to 28 at 10 UTC
Wind 5 kt from the East/Southeast
Becoming
from 28 at 18 UTC to 28 at 21 UTC
Wind 3 kt from the West
Visibility 10 km or more
no clouds below 1500 m and no cumulonimbus

TAF: LJLJ 280200Z 2803/2903 28003KT 9999 FEW060 BECMG 2808/2810 12005KT BECMG 2818/2821 28003KT CAVOK

Weather observations and forecasts of more than 4000 airports (METAR and TAF reports).

The available stations are represented by yellow and red dots on the map.

Hover mouse over dot to see the name of the station.

Then click to see weather observations and forecasts.

To change the map : click on the green buttons with a black cross to zoom in, on the green button with a dash to zoom out, or on the green arrows for adjacent maps.


METAR-TAF: